Time;durP1;ratioP1;P1;durP2;ratioP2;P2;SDS_P1;SDS_P2;PMS_P1;PMS_P2;Temp;Humidity;BMP_temperature;BMP_pressure;BME280_temperature;BME280_humidity;BME280_pressure;Samples;Min_cycle;Max_cycle;Signal;HPM_P1;HPM_P2
2024/01/26 00:00:37;;;;;;;5.47;0.68;;;;;;;12.31;100.00;101394.13;6247940;23;20095;-83
2024/01/26 00:03:07;;;;;;;1.98;0.77;;;;;;;12.33;100.00;101408.91;6248964;23;20020;-85
2024/01/26 00:05:37;;;;;;;1.35;0.32;;;;;;;12.36;100.00;101409.00;6247599;23;20074;-84
2024/01/26 00:08:12;;;;;;;2.75;0.60;;;;;;;12.40;100.00;101411.69;6248068;23;20044;-85
2024/01/26 00:10:40;;;;;;;1.10;0.40;;;;;;;12.32;100.00;101407.16;6247041;23;20016;-87
2024/01/26 00:13:10;;;;;;;0.55;0.38;;;;;;;12.35;100.00;101415.03;6245036;23;20095;-85
2024/01/26 00:15:40;;;;;;;3.92;0.50;;;;;;;12.26;100.00;101412.13;6241066;23;20019;-85
2024/01/26 00:18:11;;;;;;;6.82;0.60;;;;;;;12.29;100.00;101412.22;6247519;23;20012;-87
2024/01/26 00:20:42;;;;;;;1.67;0.60;;;;;;;12.29;100.00;101416.53;6250156;23;20103;-87
2024/01/26 00:23:15;;;;;;;3.53;0.57;;;;;;;12.23;100.00;101417.22;6250188;23;20012;-87
2024/01/26 00:49:02;;;;;;;2.92;0.50;;;;;;;11.65;100.00;101456.66;6236718;22;20024;-84
2024/01/26 00:51:31;;;;;;;1.55;0.60;;;;;;;11.62;100.00;101467.78;6246259;23;20084;-87
2024/01/26 00:54:00;;;;;;;3.40;0.70;;;;;;;11.60;100.00;101465.97;6247102;23;20024;-85
2024/01/26 00:56:36;;;;;;;3.42;0.45;;;;;;;11.62;100.00;101466.91;6221327;23;20027;-87
2024/01/26 00:59:05;;;;;;;1.80;0.30;;;;;;;11.62;100.00;101464.31;6246759;23;20455;-85
2024/01/26 01:01:36;;;;;;;4.72;0.40;;;;;;;11.61;100.00;101468.59;6249937;23;20297;-87
2024/01/26 01:06:50;;;;;;;5.80;0.68;;;;;;;11.62;100.00;101475.56;6248458;23;20020;-87
2024/01/26 01:09:19;;;;;;;4.50;1.02;;;;;;;11.60;100.00;101479.81;6250687;23;20016;-87
2024/01/26 01:11:48;;;;;;;2.30;0.65;;;;;;;11.58;100.00;101476.28;6250841;23;20016;-86
2024/01/26 01:14:21;;;;;;;2.67;1.05;;;;;;;11.56;100.00;101471.88;6247583;23;20016;-87
2024/01/26 01:16:50;;;;;;;0.77;0.40;;;;;;;11.58;100.00;101488.34;6245794;23;20020;-86
2024/01/26 01:19:22;;;;;;;1.23;0.50;;;;;;;11.58;100.00;101484.06;6250090;23;20020;-86
2024/01/26 01:22:01;;;;;;;4.13;0.60;;;;;;;11.64;100.00;101486.00;6246793;23;20020;-87
2024/01/26 01:24:30;;;;;;;2.67;0.60;;;;;;;11.65;100.00;101492.94;6244583;23;20018;-86
2024/01/26 01:26:59;;;;;;;2.05;0.77;;;;;;;11.66;100.00;101495.59;6247263;23;20047;-87
2024/01/26 01:29:27;;;;;;;2.55;0.68;;;;;;;11.68;100.00;101493.03;6248224;23;20020;-88
2024/01/26 01:32:02;;;;;;;2.67;0.50;;;;;;;11.69;100.00;101498.28;6248810;23;20012;-88
2024/01/26 01:34:32;;;;;;;4.35;0.88;;;;;;;11.73;100.00;101497.59;6249127;23;20025;-89
2024/01/26 01:37:01;;;;;;;2.00;0.30;;;;;;;11.72;100.00;101484.56;6248811;23;20047;-87
2024/01/26 01:39:30;;;;;;;4.45;0.52;;;;;;;11.77;100.00;101490.78;6250247;23;20067;-88
2024/01/26 01:42:03;;;;;;;4.35;0.35;;;;;;;11.77;100.00;101488.19;6249180;23;20091;-87
2024/01/26 01:44:32;;;;;;;1.88;0.45;;;;;;;11.80;100.00;101488.31;6245974;23;20016;-87
2024/01/26 01:47:05;;;;;;;2.67;0.60;;;;;;;11.80;100.00;101493.50;6247971;23;20028;-89
2024/01/26 01:49:45;;;;;;;3.38;0.75;;;;;;;11.77;100.00;101493.38;6248869;23;20099;-89
2024/01/26 01:52:17;;;;;;;6.07;0.60;;;;;;;11.79;100.00;101496.91;6250448;23;20019;-91
2024/01/26 01:54:46;;;;;;;3.45;0.45;;;;;;;11.78;100.00;101491.69;6246766;23;20024;-88
2024/01/26 02:18:09;;;;;;;1.75;0.40;;;;;;;11.36;100.00;101490.16;6217999;22;20028;-89
2024/01/26 02:20:37;;;;;;;1.83;0.52;;;;;;;11.27;100.00;101484.59;6248566;23;20012;-87
2024/01/26 02:23:06;;;;;;;0.95;0.40;;;;;;;11.32;100.00;101490.84;6248413;23;20020;-89
2024/01/26 02:25:44;;;;;;;0.80;0.32;;;;;;;11.27;100.00;101485.50;6248691;23;20012;-88
2024/01/26 02:28:13;;;;;;;2.15;0.40;;;;;;;11.28;100.00;101496.75;6249364;23;20452;-89
2024/01/26 02:30:42;;;;;;;3.30;0.50;;;;;;;11.31;100.00;101486.47;6248183;23;20024;-88
2024/01/26 02:33:11;;;;;;;2.75;0.50;;;;;;;11.27;100.00;101488.09;6249432;23;20123;-88
2024/01/26 02:35:48;;;;;;;1.00;0.25;;;;;;;11.29;100.00;101493.31;6248481;23;20019;-88
2024/01/26 02:38:18;;;;;;;4.40;0.60;;;;;;;11.26;100.00;101488.91;6249212;23;20043;-89
2024/01/26 02:40:49;;;;;;;3.53;0.32;;;;;;;11.24;100.00;101487.94;6247573;23;20016;-90
2024/01/26 02:46:00;;;;;;;1.40;0.70;;;;;;;11.26;100.00;101493.19;6248441;23;20020;-87
2024/01/26 02:48:29;;;;;;;4.78;0.60;;;;;;;11.26;100.00;101498.38;6247207;23;20020;-86
2024/01/26 02:51:00;;;;;;;3.38;0.50;;;;;;;11.23;100.00;101499.16;6247586;23;20012;-85
2024/01/26 02:54:29;;;;;;;;;;;;;;;;;;;;;
2024/01/26 03:09:58;;;;;;;5.70;0.70;;;;;;;11.22;100.00;101506.84;6216175;22;20051;-83
2024/01/26 03:12:28;;;;;;;1.92;0.60;;;;;;;11.20;100.00;101493.88;6213358;23;20442;-82
2024/01/26 03:14:56;;;;;;;1.13;0.47;;;;;;;11.27;100.00;101505.31;6240737;23;20020;-83
2024/01/26 03:17:25;;;;;;;3.85;0.60;;;;;;;11.28;100.00;101507.09;6240749;23;20421;-83
2024/01/26 03:20:03;;;;;;;2.78;0.52;;;;;;;11.29;100.00;101514.03;6245878;23;20090;-83
2024/01/26 03:22:32;;;;;;;2.20;0.82;;;;;;;11.31;100.00;101512.38;6244671;23;20016;-83
2024/01/26 03:25:04;;;;;;;2.00;0.60;;;;;;;11.30;100.00;101516.69;6246801;23;20016;-84
2024/01/26 03:27:33;;;;;;;1.47;0.60;;;;;;;11.27;100.00;101519.19;6246127;23;20020;-84
2024/01/26 03:30:05;;;;;;;3.50;0.82;;;;;;;11.33;100.00;101523.69;6246831;23;20043;-83
2024/01/26 03:32:34;;;;;;;5.30;0.57;;;;;;;11.36;100.00;101528.13;6244984;23;20012;-86
2024/01/26 03:35:03;;;;;;;3.30;1.13;;;;;;;11.32;100.00;101521.94;6250623;23;20020;-84
2024/01/26 03:37:32;;;;;;;3.45;0.65;;;;;;;11.29;100.00;101529.56;6248020;23;20024;-83
2024/01/26 03:40:04;;;;;;;6.25;0.60;;;;;;;11.21;100.00;101525.81;6246883;23;20051;-84
2024/01/26 03:42:32;;;;;;;;;;;;;;;11.21;100.00;101536.19;6247963;23;20028;-83
2024/01/26 03:45:01;;;;;;;3.60;0.88;;;;;;;11.21;100.00;101521.53;6247884;23;19969;-84
2024/01/26 03:47:31;;;;;;;3.40;0.80;;;;;;;11.23;100.00;101521.59;6248651;23;20020;-84
2024/01/26 03:50:00;;;;;;;2.72;0.70;;;;;;;11.28;100.00;101527.81;6248262;23;20012;-84
2024/01/26 03:52:31;;;;;;;3.42;0.60;;;;;;;11.32;100.00;101525.41;6248868;23;20024;-84
2024/01/26 03:55:01;;;;;;;2.58;0.60;;;;;;;11.37;100.00;101525.59;6248187;23;20460;-84
2024/01/26 03:57:31;;;;;;;2.83;0.77;;;;;;;11.39;100.00;101526.53;6248360;23;20028;-84
2024/01/26 04:00:00;;;;;;;5.13;0.80;;;;;;;11.46;100.00;101532.84;6248380;23;20062;-84
2024/01/26 04:02:37;;;;;;;4.68;0.68;;;;;;;11.49;100.00;101538.13;6247793;23;20016;-84
2024/01/26 04:05:08;;;;;;;1.80;0.80;;;;;;;11.53;100.00;101532.25;6247578;23;20071;-84
2024/01/26 04:07:37;;;;;;;4.95;1.00;;;;;;;11.55;100.00;101533.19;6246646;23;20020;-83
2024/01/26 04:10:08;;;;;;;3.85;0.90;;;;;;;11.50;100.00;101533.00;6249398;23;20024;-84
2024/01/26 04:12:40;;;;;;;7.78;0.63;;;;;;;11.51;100.00;101532.19;6244276;23;20341;-84
2024/01/26 04:15:11;;;;;;;4.95;1.10;;;;;;;11.55;100.00;101534.91;6242997;23;20468;-84
2024/01/26 04:17:40;;;;;;;1.75;0.60;;;;;;;11.57;100.00;101533.22;6242359;23;20022;-84
2024/01/26 04:20:18;;;;;;;5.90;0.75;;;;;;;11.58;100.00;101528.09;6247284;23;20091;-84
2024/01/26 04:22:47;;;;;;;1.60;0.50;;;;;;;11.61;100.00;101527.34;6245723;23;20016;-84
2024/01/26 04:25:16;;;;;;;1.50;0.57;;;;;;;11.62;100.00;101526.53;6247138;23;20027;-83
2024/01/26 04:27:48;;;;;;;2.70;0.65;;;;;;;11.62;100.00;101523.94;6247585;23;20028;-84
2024/01/26 04:30:23;;;;;;;3.33;1.23;;;;;;;11.60;100.00;101515.22;6247269;23;20440;-84
2024/01/26 04:32:52;;;;;;;3.40;1.08;;;;;;;11.62;100.00;101523.94;6247352;23;20070;-84
2024/01/26 04:35:22;;;;;;;1.90;0.70;;;;;;;11.61;100.00;101519.56;6248204;23;20020;-84
2024/01/26 04:38:01;;;;;;;4.63;0.63;;;;;;;11.63;100.00;101520.50;6247339;23;20066;-84
2024/01/26 04:40:30;;;;;;;0.80;0.40;;;;;;;11.63;100.00;101520.50;6246936;23;20091;-85
2024/01/26 04:43:00;;;;;;;1.27;0.70;;;;;;;11.63;100.00;101517.91;6248593;23;20027;-85
2024/01/26 04:45:29;;;;;;;3.72;0.50;;;;;;;11.61;100.00;101514.38;6248489;23;20032;-86
2024/01/26 04:48:03;;;;;;;2.55;0.65;;;;;;;11.59;100.00;101518.63;6249667;23;20020;-89
2024/01/26 04:50:32;;;;;;;6.10;0.80;;;;;;;11.57;100.00;101525.44;6247517;23;20016;-86
2024/01/26 04:53:01;;;;;;;3.53;1.23;;;;;;;11.52;100.00;101522.69;6246766;23;20095;-86
2024/01/26 04:55:30;;;;;;;3.63;0.50;;;;;;;11.46;100.00;101523.34;6244906;23;20024;-86
2024/01/26 04:58:11;;;;;;;4.35;0.77;;;;;;;11.48;100.00;101532.06;6246799;23;20024;-86
2024/01/26 05:00:40;;;;;;;3.30;0.80;;;;;;;11.46;100.00;101525.06;6247467;23;20024;-87
2024/01/26 05:29:02;;;;;;;;;;;;;;;;;;;;;
2024/01/26 05:57:15;;;;;;;5.25;1.60;;;;;;;11.09;100.00;101470.13;6248184;22;20440;-88
2024/01/26 06:04:57;;;;;;;4.03;1.60;;;;;;;11.04;100.00;101470.75;6249917;22;20393;-85
2024/01/26 06:07:27;;;;;;;5.88;1.80;;;;;;;11.01;100.00;101468.06;6248799;23;20016;-85
2024/01/26 06:09:56;;;;;;;7.60;2.35;;;;;;;10.95;100.00;101479.06;6248578;23;20016;-84
2024/01/26 06:12:41;;;;;;;7.13;1.80;;;;;;;10.89;100.00;101479.69;6248562;23;20102;-83
2024/01/26 06:15:13;;;;;;;8.73;2.78;;;;;;;10.87;100.00;101472.69;6244045;23;20016;-84
2024/01/26 06:17:49;;;;;;;6.28;2.40;;;;;;;10.87;100.00;101468.38;6244258;23;20035;-85
2024/01/26 06:20:21;;;;;;;8.93;2.38;;;;;;;10.86;100.00;101466.63;6248526;23;20016;-85
2024/01/26 06:22:50;;;;;;;8.82;2.83;;;;;;;10.86;100.00;101468.34;6247912;23;20099;-85
2024/01/26 06:25:29;;;;;;;7.03;2.28;;;;;;;10.81;100.00;101468.16;6248660;23;20028;-85
2024/01/26 06:28:00;;;;;;;9.23;2.47;;;;;;;10.78;100.00;101472.31;6248667;23;20020;-85
2024/01/26 06:30:30;;;;;;;6.88;2.70;;;;;;;10.75;100.00;101461.84;6247927;23;20475;-84
2024/01/26 06:33:06;;;;;;;7.20;2.60;;;;;;;10.68;100.00;101466.78;6248527;23;20475;-85
2024/01/26 06:35:38;;;;;;;8.63;3.20;;;;;;;10.64;100.00;101464.88;6247106;23;20016;-84
2024/01/26 06:38:08;;;;;;;13.63;3.95;;;;;;;10.63;100.00;101463.13;6248464;23;20039;-85
2024/01/26 06:40:37;;;;;;;9.77;3.65;;;;;;;10.60;100.00;101462.97;6248376;23;20078;-85
2024/01/26 06:43:16;;;;;;;13.07;3.17;;;;;;;10.48;100.00;101460.78;6248887;23;20403;-85
2024/01/26 06:45:45;;;;;;;7.43;2.90;;;;;;;10.44;100.00;101463.19;6248555;23;20075;-85
2024/01/26 06:48:15;;;;;;;10.57;2.85;;;;;;;10.39;100.00;101449.19;6247408;23;20072;-85
2024/01/26 06:50:53;;;;;;;8.00;3.38;;;;;;;10.31;100.00;101461.81;6256337;23;20462;-84
2024/01/26 06:53:26;;;;;;;6.78;2.67;;;;;;;10.24;100.00;101452.88;6262577;23;20030;-84
2024/01/26 06:55:59;;;;;;;5.38;2.20;;;;;;;10.21;100.00;101457.91;6258454;23;20044;-85
2024/01/26 06:58:40;;;;;;;4.32;2.10;;;;;;;10.17;100.00;101461.19;6256486;23;20016;-84
2024/01/26 07:01:18;;;;;;;4.35;1.92;;;;;;;10.22;100.00;101472.63;6256827;23;20016;-85
2024/01/26 07:03:53;;;;;;;4.25;2.15;;;;;;;10.23;100.00;101471.78;6257376;23;20047;-84
2024/01/26 07:06:27;;;;;;;5.40;1.92;;;;;;;10.21;100.00;101473.41;6255340;23;20062;-84
2024/01/26 07:09:04;;;;;;;4.80;1.98;;;;;;;10.22;100.00;101472.63;6258302;23;20019;-85
2024/01/26 07:11:38;;;;;;;6.43;2.15;;;;;;;10.21;100.00;101481.16;6255441;23;20080;-85
2024/01/26 07:14:15;;;;;;;5.53;1.70;;;;;;;10.19;100.00;101477.66;6250963;23;20050;-85
2024/01/26 07:16:56;;;;;;;6.18;2.10;;;;;;;10.14;100.00;101483.44;6250234;23;20024;-84
2024/01/26 07:19:26;;;;;;;4.18;2.03;;;;;;;10.13;100.00;101474.81;6252014;23;20448;-83
2024/01/26 07:24:41;;;;;;;5.07;1.63;;;;;;;10.12;100.00;101475.59;6253848;23;20099;-85
2024/01/26 07:27:15;;;;;;;3.15;1.85;;;;;;;10.07;100.00;101459.03;6254872;23;20031;-84
2024/01/26 07:29:52;;;;;;;4.60;1.58;;;;;;;10.04;100.00;101464.06;6253489;23;20141;-86
2024/01/26 07:32:22;;;;;;;8.40;1.42;;;;;;;9.99;100.00;101455.25;6247290;23;20016;-85
2024/01/26 07:37:39;;;;;;;4.93;2.28;;;;;;;9.89;100.00;101456.53;6244940;23;20055;-86
2024/01/26 07:40:10;;;;;;;3.63;1.55;;;;;;;9.85;100.00;101452.94;6247790;23;20032;-85
2024/01/26 07:42:56;;;;;;;3.67;2.08;;;;;;;9.81;100.00;101450.16;6248211;23;20028;-85
2024/01/26 07:45:48;;;;;;;7.57;2.10;;;;;;;9.73;100.00;101442.03;6247057;23;20042;-85
2024/01/26 07:48:21;;;;;;;5.07;1.70;;;;;;;9.70;100.00;101457.44;6248406;23;20107;-85
2024/01/26 07:51:07;;;;;;;10.40;2.53;;;;;;;9.68;100.00;101448.72;6248039;23;20039;-86
2024/01/26 07:53:40;;;;;;;5.88;2.47;;;;;;;9.70;100.00;101448.78;6244099;23;20024;-85
2024/01/26 07:56:10;;;;;;;5.38;2.20;;;;;;;9.74;100.00;101450.72;6221457;23;20051;-85
2024/01/26 07:58:46;;;;;;;8.02;2.17;;;;;;;9.75;100.00;101452.47;6221112;23;20052;-86
2024/01/26 08:01:18;;;;;;;10.77;2.42;;;;;;;9.74;100.00;101451.59;6247443;23;20097;-85
2024/01/26 08:03:51;;;;;;;5.50;2.17;;;;;;;9.71;100.00;101447.97;6247485;23;20020;-85
2024/01/26 08:06:42;;;;;;;;;;;;;;;9.71;100.00;101453.13;6248368;23;20091;-86
2024/01/26 08:09:27;;;;;;;6.43;1.88;;;;;;;9.62;100.00;101449.34;6248206;23;20350;-85
2024/01/26 08:12:01;;;;;;;8.45;3.17;;;;;;;9.56;100.00;101432.69;6230626;23;20460;-86
2024/01/26 08:14:42;;;;;;;12.98;3.65;;;;;;;9.57;100.00;101431.84;6241802;23;20083;-86
2024/01/26 08:17:13;;;;;;;11.73;4.00;;;;;;;9.57;100.00;101424.09;6243687;23;20459;-85
2024/01/26 08:19:42;;;;;;;8.65;2.63;;;;;;;9.58;100.00;101420.72;6249079;23;20040;-85
2024/01/26 08:22:14;;;;;;;6.78;2.00;;;;;;;9.60;100.00;101419.09;6250410;23;20505;-86
2024/01/26 08:24:49;;;;;;;4.28;2.17;;;;;;;9.57;100.00;101416.34;6249206;23;20020;-84
2024/01/26 08:27:18;;;;;;;8.85;2.80;;;;;;;9.58;100.00;101416.44;6249999;23;20085;-85
2024/01/26 08:29:47;;;;;;;8.30;2.13;;;;;;;9.55;100.00;101408.56;6249631;23;20020;-85
2024/01/26 08:35:27;;;;;;;4.95;2.20;;;;;;;9.48;100.00;101397.88;5170745;27;20349;-85
2024/01/26 08:37:55;;;;;;;5.45;1.98;;;;;;;9.46;100.00;101395.22;5168151;27;20059;-85
2024/01/26 08:40:24;;;;;;;5.90;1.90;;;;;;;9.42;100.00;101393.31;5164266;27;20266;-86
2024/01/26 08:43:05;;;;;;;4.78;1.80;;;;;;;9.39;100.00;101394.06;5166598;27;20117;-86
2024/01/26 08:45:34;;;;;;;2.65;1.48;;;;;;;9.41;100.00;101395.03;5168623;27;20050;-86
2024/01/26 08:48:03;;;;;;;6.38;1.75;;;;;;;9.39;100.00;101388.00;5168055;27;20043;-86
2024/01/26 08:50:36;;;;;;;6.53;2.20;;;;;;;9.42;100.00;101385.56;5165547;27;20039;-86
2024/01/26 08:53:06;;;;;;;8.05;1.83;;;;;;;9.43;100.00;101382.16;5162850;27;20058;-85
2024/01/26 08:55:35;;;;;;;2.70;1.25;;;;;;;9.41;100.00;101376.94;5164868;27;20074;-86
2024/01/26 08:58:05;;;;;;;4.57;1.85;;;;;;;9.48;100.00;101392.69;5164674;27;20054;-85
2024/01/26 09:00:33;;;;;;;3.67;1.63;;;;;;;9.44;100.00;101382.25;5159938;27;20059;-85
2024/01/26 09:03:08;;;;;;;5.05;1.20;;;;;;;9.42;100.00;101388.16;5146471;27;20053;-86
2024/01/26 09:05:38;;;;;;;4.30;1.25;;;;;;;9.38;100.00;101386.25;5176836;27;20066;-86
2024/01/26 09:08:08;;;;;;;7.45;1.55;;;;;;;9.38;100.00;101389.72;5164183;27;20051;-86
2024/01/26 09:10:43;;;;;;;4.50;1.50;;;;;;;9.40;100.00;101392.38;5170596;27;20111;-85
2024/01/26 09:13:13;;;;;;;4.63;1.40;;;;;;;9.44;100.00;101395.16;5157557;27;20619;-85
2024/01/26 09:15:41;;;;;;;3.55;1.20;;;;;;;9.49;100.00;101394.47;5159309;27;20141;-86
2024/01/26 09:18:10;;;;;;;5.40;1.63;;;;;;;9.51;100.00;101396.31;5166058;27;20050;-86
2024/01/26 09:20:51;;;;;;;9.05;1.60;;;;;;;9.45;100.00;101388.28;5165856;27;20129;-87
2024/01/26 09:23:20;;;;;;;3.50;1.33;;;;;;;9.41;100.00;101394.13;5164291;27;20051;-86
2024/01/26 09:25:49;;;;;;;4.45;1.55;;;;;;;9.34;100.00;101390.38;5162008;27;20153;-86
2024/01/26 09:28:22;;;;;;;2.03;1.10;;;;;;;9.35;100.00;101405.09;5165319;27;20133;-86
2024/01/26 09:30:52;;;;;;;3.08;1.00;;;;;;;9.34;100.00;101405.88;5162012;27;20514;-86
2024/01/26 09:33:21;;;;;;;4.43;1.75;;;;;;;9.35;100.00;101401.63;5163532;27;20053;-86
2024/01/26 09:35:52;;;;;;;6.15;1.27;;;;;;;9.34;100.00;101405.88;5158346;27;20042;-86
2024/01/26 09:38:21;;;;;;;4.05;1.77;;;;;;;9.35;100.00;101418.00;5168091;27;20045;-86
2024/01/26 09:40:52;;;;;;;5.65;1.48;;;;;;;9.31;100.00;101410.91;5169823;27;20046;-86
2024/01/26 09:43:21;;;;;;;3.45;1.15;;;;;;;9.33;100.00;101417.03;5156275;27;20103;-86
2024/01/26 09:45:53;;;;;;;2.50;1.35;;;;;;;9.37;100.00;101411.19;5150861;27;20052;-86
2024/01/26 09:48:22;;;;;;;2.33;1.13;;;;;;;9.42;100.00;101414.88;5147505;27;20046;-86
2024/01/26 09:51:00;;;;;;;5.32;1.42;;;;;;;9.41;100.00;101415.69;5153132;27;20082;-86
2024/01/26 09:53:32;;;;;;;3.63;0.98;;;;;;;9.43;100.00;101424.38;5162937;27;20230;-86
2024/01/26 09:56:03;;;;;;;3.33;1.13;;;;;;;9.48;100.00;101423.69;5149507;27;20055;-86
2024/01/26 09:58:35;;;;;;;3.90;1.23;;;;;;;9.49;100.00;101421.19;5153946;27;20058;-85
2024/01/26 10:01:06;;;;;;;4.45;1.60;;;;;;;9.52;100.00;101423.03;5150794;27;20046;-85
2024/01/26 10:03:35;;;;;;;2.15;1.15;;;;;;;9.53;100.00;101428.28;5150675;27;20042;-85
2024/01/26 10:06:17;;;;;;;5.22;1.50;;;;;;;9.52;100.00;101430.78;5153773;27;20043;-85
2024/01/26 10:08:46;;;;;;;1.88;1.42;;;;;;;9.53;100.00;101424.78;5155139;27;20157;-86
2024/01/26 10:11:15;;;;;;;2.13;1.00;;;;;;;9.51;100.00;101424.72;5151113;27;20047;-85
2024/01/26 10:13:44;;;;;;;4.55;0.75;;;;;;;9.47;100.00;101422.81;5137735;27;20428;-85
2024/01/26 10:16:17;;;;;;;3.67;1.00;;;;;;;9.47;100.00;101438.31;5146592;27;20503;-83
2024/01/26 10:18:48;;;;;;;8.23;1.27;;;;;;;9.47;100.00;101434.88;5153859;27;20402;-85
2024/01/26 10:21:20;;;;;;;3.85;1.00;;;;;;;9.43;100.00;101439.88;5158437;27;20050;-85
2024/01/26 10:37:16;;;;;;;6.18;0.85;;;;;;;9.41;100.00;101461.28;6159177;22;2672360;-86
2024/01/26 10:39:57;;;;;;;5.40;1.02;;;;;;;9.43;100.00;101451.91;6258466;22;20024;-85
2024/01/26 10:42:29;;;;;;;1.55;0.88;;;;;;;9.37;100.00;101468.03;6258839;23;20020;-86
2024/01/26 10:45:03;;;;;;;1.85;1.10;;;;;;;9.24;100.00;101455.34;6256012;22;20521;-86
2024/01/26 10:47:40;;;;;;;1.77;0.85;;;;;;;9.25;100.00;101446.78;6257340;23;20031;-85
2024/01/26 10:50:12;;;;;;;4.25;1.20;;;;;;;9.23;100.00;101438.06;6256704;23;20069;-85
2024/01/26 10:52:44;;;;;;;2.43;1.23;;;;;;;9.25;100.00;101436.44;6255916;23;20019;-86
2024/01/26 10:55:16;;;;;;;6.90;1.17;;;;;;;9.26;100.00;101442.53;6257744;23;20253;-86
2024/01/26 10:57:45;;;;;;;2.22;0.93;;;;;;;9.26;100.00;101434.78;6257660;23;20024;-84
2024/01/26 11:00:15;;;;;;;0.80;0.70;;;;;;;9.25;100.00;101428.72;6258796;23;20020;-84
2024/01/26 11:02:45;;;;;;;1.33;0.88;;;;;;;9.26;100.00;101416.69;6258973;23;20024;-86
2024/01/26 11:05:18;;;;;;;6.95;1.40;;;;;;;9.26;100.00;101412.41;6260927;22;20016;-87
2024/01/26 11:07:49;;;;;;;2.05;1.00;;;;;;;9.25;100.00;101404.59;6261402;23;20020;-86
2024/01/26 11:10:24;;;;;;;3.10;1.00;;;;;;;9.28;100.00;101405.63;6266005;23;20020;-86
2024/01/26 11:13:03;;;;;;;2.05;1.15;;;;;;;9.31;100.00;101400.59;6277124;22;20012;-85
2024/01/26 11:15:32;;;;;;;3.30;0.70;;;;;;;9.28;100.00;101403.03;6274146;22;20028;-87
2024/01/26 11:18:03;;;;;;;3.67;1.10;;;;;;;9.29;100.00;101402.22;6278175;22;20038;-86
2024/01/26 11:20:39;;;;;;;1.42;0.80;;;;;;;9.24;100.00;101395.97;6280987;22;20024;-86
2024/01/26 11:23:13;;;;;;;2.85;0.98;;;;;;;9.22;100.00;101400.19;6280949;22;20024;-85
2024/01/26 11:25:44;;;;;;;2.25;1.10;;;;;;;9.19;100.00;101390.59;6280701;22;20011;-84
2024/01/26 11:28:29;;;;;;;2.67;1.10;;;;;;;9.22;100.00;101395.00;6280857;22;20081;-86
2024/01/26 11:30:58;;;;;;;1.40;0.73;;;;;;;9.24;100.00;101398.53;6279331;22;20056;-85
2024/01/26 11:33:39;;;;;;;0.85;0.60;;;;;;;9.25;100.00;101392.56;6262268;23;20023;-85
2024/01/26 11:36:11;;;;;;;4.50;1.05;;;;;;;9.29;100.00;101396.16;6253093;22;20026;-85
2024/01/26 11:38:45;;;;;;;10.17;1.70;;;;;;;9.29;100.00;101381.56;6248223;23;20022;-86
2024/01/26 11:41:19;;;;;;;3.15;0.82;;;;;;;9.34;100.00;101382.63;6248254;22;20475;-85
2024/01/26 11:43:52;;;;;;;1.42;0.63;;;;;;;9.35;100.00;101371.50;6247350;22;20042;-86
2024/01/26 11:46:23;;;;;;;1.75;0.70;;;;;;;9.37;100.00;101380.22;6244963;22;20689;-85
2024/01/26 11:48:59;;;;;;;1.77;0.55;;;;;;;9.38;100.00;101376.78;6247011;22;20107;-86
2024/01/26 11:51:28;;;;;;;5.93;0.82;;;;;;;9.43;100.00;101379.59;6248369;23;20020;-86
2024/01/26 11:53:58;;;;;;;3.50;0.90;;;;;;;9.47;100.00;101370.28;6247975;23;20022;-86
2024/01/26 11:56:28;;;;;;;1.00;0.43;;;;;;;9.49;100.00;101363.50;6248385;23;20100;-86
2024/01/26 11:59:03;;;;;;;4.15;1.00;;;;;;;9.45;100.00;101354.72;6248500;23;20022;-85
2024/01/26 12:01:32;;;;;;;1.95;0.73;;;;;;;9.48;100.00;101356.53;6248017;22;20024;-87
2024/01/26 12:04:02;;;;;;;4.32;1.60;;;;;;;9.46;100.00;101355.59;6248180;23;20232;-87
2024/01/26 12:06:31;;;;;;;2.42;0.63;;;;;;;9.40;100.00;101357.09;6249029;23;20090;-87
2024/01/26 12:09:09;;;;;;;2.47;0.93;;;;;;;9.33;100.00;101359.34;6248928;22;20024;-87
2024/01/26 12:11:39;;;;;;;3.47;0.82;;;;;;;9.25;100.00;101358.97;6248790;22;20044;-87
2024/01/26 12:14:08;;;;;;;0.98;0.47;;;;;;;9.28;100.00;101369.47;6244503;23;20102;-88
2024/01/26 12:16:46;;;;;;;6.43;0.80;;;;;;;9.23;100.00;101369.28;6244011;23;20048;-87
2024/01/26 12:19:16;;;;;;;1.20;0.65;;;;;;;9.25;100.00;101366.72;6247676;22;20043;-86
2024/01/26 12:21:48;;;;;;;3.92;0.70;;;;;;;9.23;100.00;101358.03;6248612;22;20020;-87
2024/01/26 12:24:21;;;;;;;10.73;0.75;;;;;;;9.26;100.00;101360.78;6249152;23;20016;-87
2024/01/26 12:26:51;;;;;;;1.83;0.90;;;;;;;9.30;100.00;101360.09;6248512;23;20017;-88
2024/01/26 12:29:20;;;;;;;3.72;0.43;;;;;;;9.32;100.00;101355.88;6248945;23;20099;-88
2024/01/26 12:31:49;;;;;;;1.08;0.60;;;;;;;9.34;100.00;101359.38;6249088;23;20038;-88
2024/01/26 12:34:30;;;;;;;0.82;0.52;;;;;;;9.35;100.00;101348.25;6248476;23;20016;-89
2024/01/26 12:37:00;;;;;;;0.30;0.30;;;;;;;9.37;100.00;101348.34;6248667;22;20055;-89
2024/01/26 12:39:32;;;;;;;1.50;0.68;;;;;;;9.37;100.00;101351.81;6249100;23;20026;-89
2024/01/26 12:42:08;;;;;;;0.47;0.30;;;;;;;9.38;100.00;101345.81;6248336;23;20111;-88
2024/01/26 12:44:38;;;;;;;2.05;0.73;;;;;;;9.43;100.00;101353.75;6249085;23;20020;-88
2024/01/26 12:47:08;;;;;;;2.72;0.95;;;;;;;9.45;100.00;101352.13;6248532;23;20012;-88
2024/01/26 12:49:36;;;;;;;1.55;0.70;;;;;;;9.48;100.00;101361.69;6248111;23;20020;-89
2024/01/26 12:52:15;;;;;;;3.13;1.13;;;;;;;9.46;100.00;101353.00;6248912;22;20016;-87
2024/01/26 12:54:47;;;;;;;1.02;0.55;;;;;;;9.47;100.00;101350.50;6248347;23;20333;-88
2024/01/26 12:57:16;;;;;;;2.55;0.55;;;;;;;9.49;100.00;101353.16;6248590;23;20016;-87
2024/01/26 12:59:53;;;;;;;7.13;0.95;;;;;;;9.51;100.00;101351.53;6246942;22;20040;-88
2024/01/26 13:02:22;;;;;;;0.65;0.30;;;;;;;9.51;100.00;101356.69;6248572;22;20027;-88
2024/01/26 13:04:52;;;;;;;1.30;0.52;;;;;;;9.51;100.00;101361.84;6248567;22;20036;-87
2024/01/26 13:10:08;;;;;;;3.60;0.70;;;;;;;9.45;100.00;101352.13;6250871;22;20024;-87
2024/01/26 13:12:37;;;;;;;3.33;0.60;;;;;;;9.49;100.00;101354.03;6248921;22;20020;-87
2024/01/26 13:15:12;;;;;;;1.58;0.60;;;;;;;9.49;100.00;101354.03;6248862;23;20054;-87
2024/01/26 13:17:41;;;;;;;1.52;0.60;;;;;;;9.47;100.00;101344.44;6249693;23;20024;-87
2024/01/26 13:20:11;;;;;;;0.50;0.40;;;;;;;9.46;100.00;101341.00;6251273;23;20023;-88
2024/01/26 13:22:52;;;;;;;3.60;0.60;;;;;;;9.43;100.00;101341.72;6249759;23;20032;-88
2024/01/26 13:25:23;;;;;;;0.80;0.60;;;;;;;9.38;100.00;101330.31;6252101;23;20042;-88
2024/01/26 13:27:52;;;;;;;1.77;0.82;;;;;;;9.43;100.00;101338.25;6250830;22;20020;-88
2024/01/26 13:30:34;;;;;;;;;;;;;;;;;;;;;
2024/01/26 13:33:03;;;;;;;2.65;1.05;;;;;;;9.32;100.00;101330.06;6250322;23;20043;-88
2024/01/26 13:35:33;;;;;;;3.63;0.63;;;;;;;9.33;100.00;101336.09;6249422;23;20015;-88
2024/01/26 13:38:06;;;;;;;0.47;0.40;;;;;;;9.31;100.00;101343.78;6249904;23;20020;-88
2024/01/26 13:40:40;;;;;;;1.85;0.95;;;;;;;9.29;100.00;101347.97;6250917;23;20016;-88
2024/01/26 13:43:10;;;;;;;1.40;0.75;;;;;;;9.32;100.00;101342.97;6248869;22;20024;-89
2024/01/26 13:45:40;;;;;;;1.70;0.57;;;;;;;9.32;100.00;101340.38;6250264;22;20115;-89
2024/01/26 13:48:19;;;;;;;3.03;0.80;;;;;;;9.34;100.00;101341.31;6249496;22;20023;-89
2024/01/26 13:50:50;;;;;;;1.13;0.60;;;;;;;9.34;100.00;101333.56;6251847;22;20102;-89
2024/01/26 13:53:21;;;;;;;3.67;1.10;;;;;;;9.28;100.00;101328.16;6251744;22;20016;-89
2024/01/26 13:56:00;;;;;;;2.63;0.60;;;;;;;9.30;100.00;101336.84;6252375;23;20383;-89
2024/01/26 13:58:31;;;;;;;1.73;0.77;;;;;;;9.29;100.00;101335.06;6251799;22;20019;-89
2024/01/26 14:01:02;;;;;;;2.20;0.80;;;;;;;9.29;100.00;101335.06;6250865;22;20020;-88
2024/01/26 14:03:41;;;;;;;3.40;0.80;;;;;;;9.32;100.00;101339.47;6251586;23;20016;-87
2024/01/26 14:06:12;;;;;;;1.98;0.75;;;;;;;9.34;100.00;101338.72;6251477;23;20020;-87
2024/01/26 14:08:41;;;;;;;2.80;0.40;;;;;;;9.36;100.00;101343.97;6251200;22;20024;-87
2024/01/26 14:11:26;;;;;;;1.35;0.68;;;;;;;9.36;100.00;101336.22;6251221;22;20032;-87